Buckeye, West Virginia
Current Conditions -  °F | °C
As of 9:35 AM on Thursday 30 Oct 2014 (Local Time) from KHSP Reporting Station
Clear Clear  
Wind Chill: 32°   Ceiling: Unl
Heat Index: 37°   Visibility: 10mi
Dew Point: 33°   Wind: 7mph
Humidity: 84%   Direction: 280°W
Pressure: 30.03"   Gusts: NA
Location:  38.19°N, 80.13°W
Report Text: KHSP 301335Z AUTO 28006KT 10SM CLR 03/01 A3003 RMK AO2 T00300006
Loading
Personal Weather Stations






























Interactive Weather Map
Tropical Storm Tracking
New forecast layout! Learn more

10-Day Weather Forecast

Advertisements
Track Severe Weather on mobile